Upperstrasburg, Pennsylvania
Current Conditions -  °F | °C
As of 3:53 AM on Sunday 26 Oct 2014 (Local Time) from KHGR Reporting Station
Clear Clear  
Wind Chill: 58°   Ceiling: Unl
Heat Index: 58°   Visibility: 10mi
Dew Point: 32°   Wind: 16mph
Humidity: 37%   Direction: 320°NW
Pressure: 29.71"   Gusts: 25mph
Location:  40.05°N, 77.77°W
Report Text: KHGR 260753Z AUTO 32014G22KT 10SM CLR 14/00 A2971 RMK AO2 PK WND 31028/0702 SLP068 T01440000
Loading
Personal Weather Stations






























Interactive Weather Map
Tropical Storm Tracking
New forecast layout! Learn more

10-Day Weather Forecast

Advertisements
Track Severe Weather on mobile